Flight Track Log - Related Links

Times and Time Zones

All times are in EDT time to prevent confusion due to time zone crossing. See the SKW5372 flight status page for this flight to view local times or setup timezone preferences in your user account.

Time Position Orientation Groundspeed Altitude Reporting Facility
EDT Latitude Longitude Course Direction KTS MPH feet Rate Location/Type
Mon 08:12:15 PM 39.3371 -106.8737 246° West  Level FlightAware Approximate
Mon 08:13:15 PM 39.3650 -106.7611 249° West  Level FlightAware Approximate
Mon 08:14:06 PM 39.3028 -106.9722 41° Northeast 252 290 13,500  Level Denver Center
Mon 08:15:06 PM 39.3508 -106.9189 91° East 293 337 16,700 2,200 Climbing Denver Center
Mon 08:16:06 PM 39.3492 -106.7739 89° East 307 353 17,900 1,750 Climbing Denver Center
Mon 08:17:06 PM 39.3517 -106.6264 89° East 359 413 20,200 2,000 Climbing Denver Center
Mon 08:18:06 PM 39.3539 -106.4733 88° East 414 476 21,900 1,750 Climbing Denver Center
Mon 08:19:06 PM 39.3581 -106.3094 87° East 442 509 23,700 1,550 Climbing Denver Center
Mon 08:20:06 PM 39.3658 -106.1375 87° East 466 536 25,000 650 Climbing Denver Center
Mon 08:21:06 PM 39.3736 -105.9603 87° East 486 559 25,000 -1,250 Level Denver Center
Mon 08:22:06 PM 39.3811 -105.7856 86° East 486 559 22,500 -2,550 Descending Denver Center
Mon 08:23:06 PM 39.3883 -105.6431 83° East 459 528 19,900 -1,800 Descending Denver Center
Mon 08:24:06 PM 39.4019 -105.4925 75° East 433 498 18,900 -900 Descending Denver Center
Mon 08:25:06 PM 39.4297 -105.3603 82° East 399 459 18,100 -1,055 Descending Denver Center
Mon 08:27:25 PM 39.4667 -105.0333 82° East 366 421 15,400 -1,288 Descending Denver TRACON
Mon 08:28:31 PM 39.4833 -104.8833 67° East 366 421 13,700 -1,143 Descending Denver TRACON
Mon 08:29:31 PM 39.5167 -104.7833 30° Northeast 316 364 13,000 -1,050 Descending Denver TRACON
Mon 08:30:31 PM 39.5833 -104.7333 38° Northeast 270 311 11,600 -1,450 Descending Denver TRACON
Mon 08:31:31 PM 39.6333 -104.6833 14° North 238 274 10,100 -1,316 Descending Denver TRACON
Mon 08:32:25 PM 39.6833 -104.6667 360° North 195 224 9,100 -1,053 Descending Denver TRACON
Mon 08:33:25 PM 39.7333 -104.6667 360° North 180 207 8,100 -1,250 Descending Denver TRACON
Mon 08:34:25 PM 39.7833 -104.6667 360° North 146 168 6,600 -1,200 Descending Denver TRACON
Mon 08:35:25 PM 39.8167 -104.6667 360° North 141 162 5,700 -900 Descending Denver TRACON

Login

Don't have an account? Register now (free) for customized features, flight alerts, and more!